Time;durP1;ratioP1;P1;durP2;ratioP2;P2;SDS_P1;SDS_P2;PMS_P1;PMS_P2;Temp;Humidity;BMP_temperature;BMP_pressure;BME280_temperature;BME280_humidity;BME280_pressure;Samples;Min_cycle;Max_cycle;Signal;HPM_P1;HPM_P2
2023/08/29 00:00:03;;;;;;;4.72;1.90;;;16.50;96.30;;;;;;4265050;27;20224;-55
2023/08/29 00:02:05;;;;;;;5.85;1.80;;;16.50;96.30;;;;;;4263985;27;20051;-55
2023/08/29 00:04:07;;;;;;;2.30;1.67;;;16.50;96.40;;;;;;4265577;27;20050;-62
2023/08/29 00:06:11;;;;;;;5.88;2.33;;;16.50;96.40;;;;;;4265208;27;20046;-55
2023/08/29 00:08:13;;;;;;;5.57;1.70;;;16.50;96.70;;;;;;4265214;27;20055;-55
2023/08/29 00:10:15;;;;;;;3.85;1.95;;;16.40;96.60;;;;;;4264806;27;20043;-54
2023/08/29 00:12:17;;;;;;;5.13;1.85;;;16.40;96.70;;;;;;4263516;27;20543;-57
2023/08/29 00:14:19;;;;;;;2.97;1.92;;;16.40;96.70;;;;;;4264385;27;20053;-58
2023/08/29 00:16:22;;;;;;;3.03;1.88;;;16.40;96.70;;;;;;4247780;28;20091;-58
2023/08/29 00:18:24;;;;;;;3.17;1.92;;;16.50;96.60;;;;;;4247700;28;20047;-55
2023/08/29 00:20:26;;;;;;;5.07;1.98;;;16.40;96.70;;;;;;4247635;28;20039;-55
2023/08/29 00:22:30;;;;;;;11.13;1.80;;;16.50;96.70;;;;;;4246396;28;20063;-55
2023/08/29 00:24:33;;;;;;;3.40;1.70;;;16.50;96.70;;;;;;4247239;28;20072;-55
2023/08/29 00:26:35;;;;;;;2.78;1.40;;;16.50;96.80;;;;;;4247513;28;20039;-55
2023/08/29 00:28:36;;;;;;;3.67;1.77;;;16.50;96.80;;;;;;4247628;28;20058;-60
2023/08/29 00:30:40;;;;;;;9.60;1.70;;;16.50;96.70;;;;;;4247370;28;20047;-55
2023/08/29 00:32:46;;;;;;;5.60;2.20;;;16.50;96.80;;;;;;4246264;28;20510;-55
2023/08/29 00:34:48;;;;;;;3.53;1.85;;;16.50;96.70;;;;;;4247524;28;20412;-54
2023/08/29 00:36:51;;;;;;;4.07;1.60;;;16.60;96.80;;;;;;4247309;28;20455;-54
2023/08/29 00:38:55;;;;;;;3.42;1.70;;;16.60;96.90;;;;;;4247317;28;20047;-55
2023/08/29 00:40:59;;;;;;;2.65;1.73;;;16.60;96.90;;;;;;4246772;28;20075;-54
2023/08/29 00:43:02;;;;;;;3.67;1.80;;;16.60;97.00;;;;;;4246067;28;20050;-54
2023/08/29 00:45:06;;;;;;;3.72;1.90;;;16.70;96.90;;;;;;4247402;28;20528;-57
2023/08/29 00:47:08;;;;;;;2.00;1.55;;;16.60;96.90;;;;;;4247256;27;20051;-57
2023/08/29 00:49:13;;;;;;;4.22;1.98;;;16.70;96.90;;;;;;4249319;27;20050;-57
2023/08/29 00:51:16;;;;;;;2.25;1.77;;;16.70;96.90;;;;;;4250800;27;20067;-57
2023/08/29 00:53:19;;;;;;;3.90;1.88;;;16.70;96.90;;;;;;4234804;28;20447;-58
2023/08/29 00:55:22;;;;;;;3.83;1.88;;;16.60;97.20;;;;;;4252055;27;20498;-58
2023/08/29 00:57:25;;;;;;;2.53;1.60;;;16.60;97.10;;;;;;4252625;27;20077;-63
2023/08/29 00:59:27;;;;;;;3.83;1.80;;;16.60;97.20;;;;;;4253737;27;20050;-59
2023/08/29 01:01:31;;;;;;;3.15;2.00;;;16.60;97.20;;;;;;4252556;27;20043;-57
2023/08/29 01:03:34;;;;;;;7.32;2.30;;;16.70;97.20;;;;;;4251416;27;20096;-58
2023/08/29 01:05:36;;;;;;;3.38;1.80;;;16.70;97.20;;;;;;4234761;28;20049;-57
2023/08/29 01:07:39;;;;;;;2.90;1.73;;;16.70;97.20;;;;;;4236221;28;20483;-58
2023/08/29 01:09:42;;;;;;;1.90;1.50;;;16.70;97.30;;;;;;4253565;27;20065;-57
2023/08/29 01:11:54;;;;;;;4.38;2.40;;;16.80;97.50;;;;;;4252569;27;20047;-57
2023/08/29 01:14:03;;;;;;;3.38;2.17;;;16.70;97.20;;;;;;4253453;27;20054;-61
2023/08/29 01:16:08;;;;;;;2.83;1.85;;;16.70;97.30;;;;;;4267841;27;20074;-57
2023/08/29 01:18:13;;;;;;;2.78;1.88;;;16.60;97.30;;;;;;4270213;27;20046;-61
2023/08/29 01:20:16;;;;;;;4.30;1.85;;;16.70;97.20;;;;;;4269145;27;20053;-59
2023/08/29 01:22:27;;;;;;;6.25;2.10;;;16.70;97.20;;;;;;4267037;27;20041;-58
2023/08/29 01:24:37;;;;;;;3.33;1.92;;;16.80;97.30;;;;;;4251357;27;20477;-62
2023/08/29 01:26:44;;;;;;;2.42;1.80;;;16.80;97.30;;;;;;4269779;27;20043;-61
2023/08/29 01:28:47;;;;;;;3.72;2.33;;;16.70;97.30;;;;;;4269612;27;20046;-59
2023/08/29 01:30:50;;;;;;;3.25;2.17;;;16.70;97.40;;;;;;4270076;27;20459;-58
2023/08/29 01:32:53;;;;;;;4.30;2.03;;;16.70;97.50;;;;;;4269081;27;20099;-61
2023/08/29 01:34:56;;;;;;;3.45;1.73;;;16.70;97.40;;;;;;4270426;27;20042;-59
2023/08/29 01:36:58;;;;;;;5.15;2.05;;;16.60;97.40;;;;;;4269086;27;20547;-64
2023/08/29 01:39:00;;;;;;;2.67;2.10;;;16.70;97.50;;;;;;4268082;27;20468;-59
2023/08/29 01:41:02;;;;;;;3.97;2.08;;;16.70;97.50;;;;;;4267368;27;20053;-59
2023/08/29 01:43:05;;;;;;;3.17;1.88;;;16.70;97.70;;;;;;4265882;27;20123;-59
2023/08/29 01:45:08;;;;;;;2.35;1.80;;;16.60;97.70;;;;;;4267071;27;20043;-63
2023/08/29 01:47:10;;;;;;;3.53;2.28;;;16.70;97.80;;;;;;4267299;27;20457;-55
2023/08/29 01:49:13;;;;;;;3.15;2.13;;;16.60;97.80;;;;;;4267014;27;20055;-56
2023/08/29 01:51:15;;;;;;;3.38;1.85;;;16.60;97.80;;;;;;4267234;27;20053;-55
2023/08/29 01:53:17;;;;;;;3.63;1.88;;;16.60;97.80;;;;;;4265970;27;20049;-56
2023/08/29 01:55:20;;;;;;;2.40;1.90;;;16.60;97.90;;;;;;4266772;27;20046;-55
2023/08/29 01:57:24;;;;;;;2.92;1.70;;;16.60;97.90;;;;;;4267016;27;20043;-57
2023/08/29 01:59:29;;;;;;;2.40;1.88;;;16.50;98.00;;;;;;4266407;27;20134;-55
2023/08/29 02:01:33;;;;;;;;;;;16.50;98.00;;;;;;4266721;27;20046;-56
2023/08/29 02:03:35;;;;;;;3.30;2.10;;;16.50;98.00;;;;;;4265647;27;20010;-53
2023/08/29 02:05:37;;;;;;;5.65;2.10;;;16.50;98.10;;;;;;4266685;27;20456;-53
2023/08/29 02:07:39;;;;;;;3.90;2.00;;;16.50;98.20;;;;;;4247725;27;20043;-56
2023/08/29 02:09:41;;;;;;;4.72;2.05;;;16.50;98.10;;;;;;4266757;27;20435;-56
2023/08/29 02:11:43;;;;;;;3.97;2.40;;;16.50;98.20;;;;;;4265962;27;20049;-56
2023/08/29 02:13:45;;;;;;;2.88;2.00;;;16.50;98.20;;;;;;4266170;27;20072;-55
2023/08/29 02:15:49;;;;;;;3.90;2.15;;;16.50;98.20;;;;;;4254015;27;20115;-55
2023/08/29 02:17:53;;;;;;;3.90;2.05;;;16.40;98.20;;;;;;4249940;27;20078;-54
2023/08/29 02:19:55;;;;;;;3.70;2.40;;;16.40;98.30;;;;;;4249881;27;20099;-56
2023/08/29 02:21:59;;;;;;;4.57;2.55;;;16.40;98.40;;;;;;4248702;27;20234;-56
2023/08/29 02:24:05;;;;;;;2.83;2.22;;;16.40;98.40;;;;;;4249794;27;20166;-56
2023/08/29 02:26:07;;;;;;;2.72;2.38;;;16.30;98.50;;;;;;4249509;27;20058;-57
2023/08/29 02:28:09;;;;;;;3.67;2.55;;;16.30;98.60;;;;;;4249403;27;20070;-56
2023/08/29 02:30:11;;;;;;;2.90;2.50;;;16.40;98.50;;;;;;4248949;27;20047;-56
2023/08/29 02:32:15;;;;;;;4.90;2.33;;;16.40;98.60;;;;;;4248274;27;20058;-56
2023/08/29 02:34:17;;;;;;;4.18;2.60;;;16.40;98.50;;;;;;4249114;27;20123;-56
2023/08/29 02:36:19;;;;;;;5.15;2.30;;;16.30;98.60;;;;;;4248803;27;20043;-56
2023/08/29 02:38:21;;;;;;;4.43;2.83;;;16.30;98.60;;;;;;4248593;27;20088;-61
2023/08/29 02:40:23;;;;;;;3.90;2.60;;;16.40;98.60;;;;;;4249139;27;20051;-56
2023/08/29 02:42:25;;;;;;;5.13;2.40;;;16.30;98.60;;;;;;4247509;27;20050;-56
2023/08/29 02:44:27;;;;;;;4.22;2.67;;;16.30;98.70;;;;;;4248767;27;20076;-55
2023/08/29 02:46:30;;;;;;;5.88;2.47;;;16.30;98.70;;;;;;4230685;28;20130;-56
2023/08/29 02:48:33;;;;;;;4.40;3.15;;;16.30;98.70;;;;;;4248577;27;20047;-60
2023/08/29 02:50:36;;;;;;;6.10;2.90;;;16.30;98.70;;;;;;4248296;27;20045;-59
2023/08/29 02:52:38;;;;;;;3.60;3.00;;;16.30;98.70;;;;;;4247541;27;20043;-59
2023/08/29 02:54:40;;;;;;;6.28;3.22;;;16.30;98.80;;;;;;4248850;27;20459;-56
2023/08/29 02:56:42;;;;;;;3.80;2.40;;;16.30;98.80;;;;;;4248623;27;20050;-56
2023/08/29 02:58:45;;;;;;;2.67;2.28;;;16.30;98.80;;;;;;4248543;27;20047;-56
2023/08/29 03:00:54;;;;;;;6.45;2.42;;;16.30;98.80;;;;;;4248372;27;20127;-56
2023/08/29 03:02:57;;;;;;;4.88;2.70;;;16.30;98.70;;;;;;4246890;27;20126;-56
2023/08/29 03:05:00;;;;;;;5.93;3.20;;;16.30;98.80;;;;;;4248119;27;20046;-56
2023/08/29 03:07:04;;;;;;;3.53;2.42;;;16.40;98.80;;;;;;4248348;27;20046;-56
2023/08/29 03:09:07;;;;;;;6.82;2.28;;;16.40;98.70;;;;;;4248241;27;20043;-56
2023/08/29 03:11:09;;;;;;;6.22;3.30;;;16.40;98.70;;;;;;4247341;27;20549;-56
2023/08/29 03:13:12;;;;;;;4.88;3.10;;;16.40;98.70;;;;;;4248063;27;20071;-59
2023/08/29 03:15:14;;;;;;;4.10;3.25;;;16.40;98.60;;;;;;4257671;27;20047;-58
2023/08/29 03:17:16;;;;;;;31.90;3.88;;;16.40;98.80;;;;;;4268111;27;20412;-62
2023/08/29 03:19:18;;;;;;;4.15;2.90;;;16.40;98.90;;;;;;4266806;27;20043;-58
2023/08/29 03:21:22;;;;;;;5.32;3.03;;;16.40;98.90;;;;;;4265311;27;20493;-58
2023/08/29 03:23:24;;;;;;;5.38;3.15;;;16.40;98.90;;;;;;4264052;27;20047;-58
2023/08/29 03:25:27;;;;;;;4.97;3.05;;;16.40;98.90;;;;;;4265204;27;20047;-56
2023/08/29 03:27:29;;;;;;;4.60;2.88;;;16.40;98.90;;;;;;4264960;27;20046;-55
2023/08/29 03:29:31;;;;;;;4.20;2.60;;;16.40;99.00;;;;;;4265295;27;20046;-53
2023/08/29 03:31:33;;;;;;;3.70;3.25;;;16.40;98.90;;;;;;4265253;27;20073;-53
2023/08/29 03:33:36;;;;;;;3.92;3.10;;;16.40;98.80;;;;;;4263607;27;20122;-53
2023/08/29 03:35:38;;;;;;;4.50;2.97;;;16.40;98.90;;;;;;4265228;27;20091;-54
2023/08/29 03:37:41;;;;;;;7.60;3.53;;;16.40;98.80;;;;;;4265106;27;20046;-56
2023/08/29 03:39:43;;;;;;;5.43;3.70;;;16.40;98.80;;;;;;4265007;27;20050;-55
2023/08/29 03:41:45;;;;;;;2.75;2.40;;;16.40;98.80;;;;;;4264826;27;20046;-55
2023/08/29 03:43:47;;;;;;;5.95;3.40;;;16.50;98.80;;;;;;4264114;27;20046;-55
2023/08/29 03:45:55;;;;;;;6.68;4.07;;;16.40;98.80;;;;;;4264766;27;20488;-55
2023/08/29 03:47:57;;;;;;;4.60;3.17;;;16.40;98.90;;;;;;4246298;27;20047;-56
2023/08/29 03:49:59;;;;;;;6.10;3.83;;;16.40;98.90;;;;;;4264594;27;20122;-57
2023/08/29 03:52:03;;;;;;;6.13;3.17;;;16.30;99.00;;;;;;4264536;27;20070;-56
2023/08/29 03:54:06;;;;;;;6.97;3.47;;;16.30;99.10;;;;;;4264817;27;20050;-56
2023/08/29 03:56:09;;;;;;;4.97;3.65;;;16.30;99.00;;;;;;4264851;27;20043;-56
2023/08/29 03:58:12;;;;;;;5.57;4.30;;;16.30;99.00;;;;;;4264662;27;20078;-56
2023/08/29 04:00:15;;;;;;;6.28;4.25;;;16.30;99.10;;;;;;4265168;27;20050;-56
2023/08/29 04:02:17;;;;;;;7.82;5.22;;;16.20;99.20;;;;;;4263551;27;20134;-55
2023/08/29 04:04:19;;;;;;;4.72;3.90;;;16.30;99.20;;;;;;4264374;27;20074;-56
2023/08/29 04:06:22;;;;;;;5.10;4.53;;;16.20;99.30;;;;;;4264839;27;20125;-56
2023/08/29 04:08:24;;;;;;;7.05;5.00;;;16.20;99.30;;;;;;4264727;27;20038;-56
2023/08/29 04:10:27;;;;;;;6.13;4.70;;;16.20;99.30;;;;;;4264640;27;20042;-56
2023/08/29 04:12:29;;;;;;;6.03;4.65;;;16.20;99.70;;;;;;4263878;27;20043;-56
2023/08/29 04:14:31;;;;;;;5.30;4.20;;;16.20;99.40;;;;;;4264167;27;20050;-56
2023/08/29 04:16:34;;;;;;;7.65;5.18;;;16.20;99.40;;;;;;4264089;27;20479;-56
2023/08/29 04:18:36;;;;;;;6.25;4.97;;;16.20;99.40;;;;;;4264441;27;20046;-56
2023/08/29 04:20:38;;;;;;;5.57;4.50;;;16.10;99.40;;;;;;4265156;27;20042;-56
2023/08/29 04:22:40;;;;;;;8.18;3.90;;;16.20;99.50;;;;;;4265018;27;20060;-56
2023/08/29 04:24:42;;;;;;;5.97;4.00;;;16.20;99.60;;;;;;4268763;27;20047;-59
2023/08/29 04:26:46;;;;;;;4.20;3.80;;;16.10;99.60;;;;;;4269070;27;20077;-56
2023/08/29 04:28:48;;;;;;;6.38;3.97;;;16.10;99.70;;;;;;4269424;27;20121;-56
2023/08/29 04:30:50;;;;;;;4.80;3.63;;;16.10;99.70;;;;;;4268717;27;20042;-56
2023/08/29 04:32:53;;;;;;;6.25;4.30;;;16.10;99.70;;;;;;4266614;27;20043;-56
2023/08/29 04:34:55;;;;;;;4.85;3.45;;;16.10;99.70;;;;;;4267686;27;20050;-56
2023/08/29 04:36:57;;;;;;;5.18;3.85;;;16.10;99.80;;;;;;4267868;27;20134;-56
2023/08/29 04:38:59;;;;;;;7.45;3.97;;;16.10;99.90;;;;;;4268028;27;20393;-56
2023/08/29 04:41:01;;;;;;;5.38;3.38;;;16.10;99.90;;;;;;4249240;27;20043;-53
2023/08/29 04:43:05;;;;;;;6.13;3.83;;;16.00;99.90;;;;;;4266657;27;20042;-54
2023/08/29 04:45:08;;;;;;;4.75;3.35;;;16.00;99.90;;;;;;4267725;27;20043;-55
2023/08/29 04:47:11;;;;;;;3.80;3.35;;;16.00;99.90;;;;;;4267460;27;20074;-54
2023/08/29 04:49:13;;;;;;;6.95;3.53;;;15.90;99.90;;;;;;4267725;27;20051;-54
2023/08/29 04:51:15;;;;;;;7.72;3.92;;;15.90;99.90;;;;;;4267802;27;20050;-53
2023/08/29 04:53:17;;;;;;;6.70;3.90;;;15.90;99.90;;;;;;4266648;27;20191;-53
2023/08/29 04:55:19;;;;;;;5.78;4.07;;;15.90;99.90;;;;;;4267581;27;20125;-54
2023/08/29 04:57:21;;;;;;;6.18;4.15;;;15.80;99.90;;;;;;4267606;27;20509;-53
2023/08/29 04:59:24;;;;;;;5.35;3.60;;;15.80;99.90;;;;;;4267779;27;20526;-55
2023/08/29 05:01:26;;;;;;;5.47;4.00;;;15.80;99.90;;;;;;4268702;27;20125;-54
2023/08/29 05:03:29;;;;;;;5.68;3.60;;;15.80;99.90;;;;;;4267773;27;20137;-54
2023/08/29 05:05:31;;;;;;;7.78;4.20;;;15.80;99.90;;;;;;4267872;27;20385;-56
2023/08/29 05:07:33;;;;;;;5.30;3.70;;;15.80;99.90;;;;;;4267776;27;20051;-56
2023/08/29 05:09:35;;;;;;;5.95;4.50;;;15.70;99.90;;;;;;4267420;27;20049;-54
2023/08/29 05:11:37;;;;;;;6.53;4.32;;;15.70;99.90;;;;;;4267390;27;20404;-53
2023/08/29 05:13:39;;;;;;;6.22;3.78;;;15.70;99.90;;;;;;4266229;27;20042;-53
2023/08/29 05:15:43;;;;;;;7.15;3.90;;;15.80;99.90;;;;;;4266623;27;20114;-56
2023/08/29 05:17:45;;;;;;;8.32;3.55;;;15.70;99.90;;;;;;4267100;27;20077;-54
2023/08/29 05:19:49;;;;;;;7.68;3.90;;;15.70;99.90;;;;;;4248906;27;20050;-54
2023/08/29 05:21:51;;;;;;;4.55;3.60;;;15.70;99.90;;;;;;4267240;27;20050;-56
2023/08/29 05:23:54;;;;;;;7.40;4.00;;;15.80;99.90;;;;;;4265855;27;20478;-53
2023/08/29 05:25:56;;;;;;;7.28;3.88;;;15.80;99.90;;;;;;4267267;27;20066;-53
2023/08/29 05:27:58;;;;;;;8.25;4.50;;;15.80;99.90;;;;;;4266821;27;20042;-53
2023/08/29 05:30:00;;;;;;;12.07;4.47;;;15.70;99.90;;;;;;4266697;27;20520;-52
2023/08/29 05:32:04;;;;;;;8.65;3.55;;;15.70;99.90;;;;;;4267002;27;20096;-53
2023/08/29 05:34:07;;;;;;;8.10;4.28;;;15.70;99.90;;;;;;4264985;27;20070;-54
2023/08/29 05:36:09;;;;;;;8.32;4.28;;;15.70;99.90;;;;;;4266974;27;20054;-53
2023/08/29 05:38:11;;;;;;;5.85;3.53;;;15.70;99.90;;;;;;4266799;27;20102;-53
2023/08/29 05:40:13;;;;;;;6.18;3.92;;;15.70;99.90;;;;;;4266527;27;20051;-54
2023/08/29 05:42:15;;;;;;;5.55;4.20;;;15.80;99.90;;;;;;4266820;27;20046;-54
2023/08/29 05:44:17;;;;;;;9.88;4.38;;;15.80;99.90;;;;;;4246994;27;20051;-54
2023/08/29 05:46:19;;;;;;;9.38;4.50;;;15.80;99.90;;;;;;4266864;27;20038;-53
2023/08/29 05:48:25;;;;;;;7.07;4.97;;;15.80;99.90;;;;;;4248372;27;20043;-53
2023/08/29 05:50:27;;;;;;;7.57;4.80;;;15.80;99.90;;;;;;4248191;27;20122;-53
2023/08/29 05:52:29;;;;;;;7.32;4.60;;;15.70;99.90;;;;;;4265970;27;20140;-54
2023/08/29 05:54:31;;;;;;;8.68;4.55;;;15.70;99.90;;;;;;4266286;27;20046;-53
2023/08/29 05:56:33;;;;;;;13.50;5.40;;;15.70;99.90;;;;;;4266885;27;20496;-54
2023/08/29 05:58:35;;;;;;;6.78;5.53;;;15.70;99.90;;;;;;4266173;27;20047;-53
2023/08/29 06:00:37;;;;;;;7.25;5.18;;;15.70;99.90;;;;;;4266605;27;20058;-53
2023/08/29 06:02:39;;;;;;;7.97;5.55;;;15.80;99.90;;;;;;4265805;27;20417;-53
2023/08/29 06:04:43;;;;;;;7.63;5.07;;;15.80;99.90;;;;;;4266406;27;20050;-53
2023/08/29 06:06:45;;;;;;;6.32;5.20;;;15.80;99.90;;;;;;4266913;27;20134;-53
2023/08/29 06:08:47;;;;;;;6.78;4.75;;;15.80;99.90;;;;;;4266454;27;20046;-54
2023/08/29 06:10:49;;;;;;;8.15;5.03;;;15.80;99.90;;;;;;4266609;27;20134;-54
2023/08/29 06:12:51;;;;;;;6.75;4.55;;;15.80;99.90;;;;;;4265004;27;20050;-54
2023/08/29 06:14:54;;;;;;;7.80;5.30;;;15.80;99.90;;;;;;4265994;27;20117;-53
2023/08/29 06:16:56;;;;;;;8.30;4.85;;;15.90;99.90;;;;;;4266518;27;20058;-54
2023/08/29 06:18:59;;;;;;;10.30;5.55;;;15.90;99.90;;;;;;4266194;27;20126;-54
2023/08/29 06:21:04;;;;;;;7.35;5.45;;;15.90;99.90;;;;;;4266605;27;20133;-58
2023/08/29 06:23:06;;;;;;;9.23;5.50;;;15.90;99.90;;;;;;4265840;27;20138;-54
2023/08/29 06:25:09;;;;;;;8.90;5.30;;;15.90;99.90;;;;;;4266262;27;20480;-54
2023/08/29 06:27:11;;;;;;;7.50;5.50;;;15.90;99.90;;;;;;4265603;27;20042;-54
2023/08/29 06:29:13;;;;;;;8.48;5.40;;;15.90;99.90;;;;;;4266014;27;20046;-54
2023/08/29 06:31:16;;;;;;;7.45;5.18;;;15.90;99.90;;;;;;4247707;27;20060;-54
2023/08/29 06:33:18;;;;;;;11.95;4.70;;;15.90;99.90;;;;;;4264922;27;20043;-55
2023/08/29 06:35:20;;;;;;;7.93;4.57;;;16.00;99.90;;;;;;4265910;27;20043;-56
2023/08/29 06:37:24;;;;;;;6.95;5.20;;;16.00;99.90;;;;;;4265960;27;20135;-54
2023/08/29 06:39:26;;;;;;;7.43;4.53;;;16.00;99.90;;;;;;4265942;27;20129;-54
2023/08/29 06:41:28;;;;;;;7.40;4.85;;;16.00;99.90;;;;;;4247596;27;20385;-54
2023/08/29 06:43:30;;;;;;;8.52;4.55;;;16.10;99.90;;;;;;4264935;27;20525;-55
2023/08/29 06:45:32;;;;;;;5.85;4.07;;;16.00;99.90;;;;;;4266189;27;20051;-55
2023/08/29 06:47:34;;;;;;;7.07;4.90;;;16.10;99.90;;;;;;4265879;27;20043;-55
2023/08/29 06:49:37;;;;;;;8.60;4.68;;;16.10;99.90;;;;;;4265532;27;20055;-55
2023/08/29 06:51:39;;;;;;;8.23;5.55;;;16.10;99.90;;;;;;4265848;27;20046;-54
2023/08/29 06:53:43;;;;;;;10.40;5.82;;;16.20;99.90;;;;;;4246591;27;20374;-55
2023/08/29 06:55:46;;;;;;;10.73;5.90;;;16.20;99.90;;;;;;4265643;27;20054;-60
2023/08/29 06:57:48;;;;;;;12.88;6.45;;;16.20;99.90;;;;;;4265145;27;20043;-59
2023/08/29 06:59:50;;;;;;;8.68;6.28;;;16.20;99.90;;;;;;4265456;27;20050;-60
2023/08/29 07:01:52;;;;;;;11.88;6.53;;;16.20;99.90;;;;;;4265680;27;20085;-59
2023/08/29 07:03:55;;;;;;;12.52;6.90;;;16.20;99.90;;;;;;4264504;27;20046;-59
2023/08/29 07:05:57;;;;;;;10.50;5.90;;;16.30;99.90;;;;;;4265666;27;20042;-59
2023/08/29 07:07:59;;;;;;;9.18;6.50;;;16.30;99.90;;;;;;4265336;27;20043;-59
2023/08/29 07:10:04;;;;;;;12.85;7.28;;;16.30;99.90;;;;;;4265429;27;20046;-59
2023/08/29 07:12:06;;;;;;;13.27;6.85;;;16.30;99.90;;;;;;4265023;27;20046;-59
2023/08/29 07:14:08;;;;;;;10.57;5.30;;;16.40;99.90;;;;;;4264125;27;20415;-59
2023/08/29 07:16:10;;;;;;;13.52;6.70;;;16.40;99.90;;;;;;4249693;27;20073;-59
2023/08/29 07:18:13;;;;;;;12.00;7.43;;;16.40;99.90;;;;;;4248023;27;20074;-59
2023/08/29 07:20:15;;;;;;;9.55;6.68;;;16.50;99.90;;;;;;4248215;27;20043;-59
2023/08/29 07:22:18;;;;;;;9.98;5.45;;;16.50;99.90;;;;;;4248033;27;20070;-59
2023/08/29 07:24:25;;;;;;;18.77;7.25;;;16.60;99.90;;;;;;4247195;27;20043;-59
2023/08/29 07:26:28;;;;;;;11.73;6.00;;;16.60;99.90;;;;;;4248571;27;20046;-58
2023/08/29 07:28:30;;;;;;;12.50;6.35;;;16.60;99.90;;;;;;4247919;27;20126;-59
2023/08/29 07:30:32;;;;;;;11.25;6.72;;;16.70;99.90;;;;;;4248388;27;20050;-59
2023/08/29 07:32:34;;;;;;;13.00;7.47;;;16.80;99.90;;;;;;4249831;27;20043;-60
2023/08/29 07:34:39;;;;;;;11.75;6.20;;;16.80;99.90;;;;;;4248330;27;20048;-59
2023/08/29 07:36:42;;;;;;;7.30;5.13;;;16.90;99.90;;;;;;4231665;28;20134;-60
2023/08/29 07:38:45;;;;;;;10.30;5.50;;;17.00;99.90;;;;;;4249288;27;20043;-60
2023/08/29 07:40:47;;;;;;;5.57;4.07;;;17.20;99.90;;;;;;4248922;27;20071;-57
2023/08/29 07:42:51;;;;;;;9.90;5.82;;;17.30;99.90;;;;;;4247581;27;20126;-60
2023/08/29 07:44:53;;;;;;;9.63;4.93;;;17.40;99.90;;;;;;4248080;27;20172;-59
2023/08/29 07:46:55;;;;;;;12.35;6.80;;;17.50;99.80;;;;;;4248230;27;20047;-59
2023/08/29 07:49:20;;;;;;;17.70;6.70;;;17.60;99.70;;;;;;4247968;27;20055;-59
2023/08/29 07:51:22;;;;;;;12.82;6.93;;;17.70;99.50;;;;;;4247791;27;20096;-59
2023/08/29 07:53:24;;;;;;;10.02;5.68;;;17.80;99.40;;;;;;4247021;27;20469;-58
2023/08/29 07:55:27;;;;;;;12.38;4.90;;;17.90;99.30;;;;;;4247307;27;20053;-58
2023/08/29 07:57:29;;;;;;;9.95;4.80;;;17.90;99.20;;;;;;4247300;27;20457;-58
2023/08/29 07:59:32;;;;;;;9.75;5.85;;;18.10;99.10;;;;;;4247846;27;20452;-59
2023/08/29 08:01:34;;;;;;;8.15;5.40;;;18.20;99.20;;;;;;4247709;27;20061;-58
2023/08/29 08:03:38;;;;;;;10.90;5.93;;;18.20;98.90;;;;;;4246474;28;20100;-58
2023/08/29 08:05:40;;;;;;;5.88;3.83;;;18.30;98.90;;;;;;4247554;28;20051;-58
2023/08/29 08:07:44;;;;;;;9.15;4.60;;;18.40;98.50;;;;;;4246789;28;20063;-55
2023/08/29 08:09:46;;;;;;;9.00;5.10;;;18.50;98.40;;;;;;4247674;28;20043;-55
2023/08/29 08:11:48;;;;;;;5.85;4.13;;;18.60;98.50;;;;;;4247680;28;20469;-57
2023/08/29 08:13:50;;;;;;;7.07;4.90;;;18.70;98.20;;;;;;4246111;28;20043;-56
2023/08/29 08:15:54;;;;;;;14.57;5.57;;;18.70;98.60;;;;;;4247188;27;20408;-57
2023/08/29 08:17:56;;;;;;;6.22;3.40;;;18.70;98.30;;;;;;4247498;28;20047;-57
2023/08/29 08:19:58;;;;;;;14.38;5.35;;;18.80;98.00;;;;;;4247452;28;20047;-57
2023/08/29 08:22:00;;;;;;;7.00;3.75;;;18.90;97.90;;;;;;4247280;28;20471;-56
2023/08/29 08:24:03;;;;;;;12.38;5.75;;;19.00;98.10;;;;;;4246223;28;20308;-57
2023/08/29 08:26:05;;;;;;;10.55;4.53;;;19.00;97.90;;;;;;4247460;28;20055;-57
2023/08/29 08:28:07;;;;;;;10.38;3.88;;;19.00;97.60;;;;;;4247581;28;20130;-59
2023/08/29 08:30:10;;;;;;;15.75;4.60;;;19.10;97.20;;;;;;4248010;28;20043;-59
2023/08/29 08:32:14;;;;;;;8.40;4.70;;;19.20;97.30;;;;;;4248602;28;20043;-60
2023/08/29 08:34:16;;;;;;;10.65;4.72;;;19.20;97.00;;;;;;4247505;28;20133;-60
2023/08/29 08:36:18;;;;;;;8.32;5.25;;;19.20;97.00;;;;;;4248272;28;20071;-59
2023/08/29 08:38:21;;;;;;;16.13;5.32;;;19.20;97.10;;;;;;4247488;28;20469;-59
2023/08/29 08:40:23;;;;;;;11.80;4.75;;;19.20;97.00;;;;;;4247149;28;20118;-58
2023/08/29 08:42:25;;;;;;;8.13;4.07;;;19.30;97.10;;;;;;4247387;28;20120;-58
2023/08/29 08:44:27;;;;;;;11.68;4.18;;;19.40;97.00;;;;;;4246822;28;20144;-59
2023/08/29 08:46:30;;;;;;;11.50;3.28;;;19.50;96.60;;;;;;4247988;28;20066;-59
2023/08/29 08:48:34;;;;;;;4.78;2.20;;;19.40;96.10;;;;;;4247487;28;20399;-60
2023/08/29 08:50:37;;;;;;;8.35;3.25;;;19.50;95.70;;;;;;4247471;28;20043;-59
2023/08/29 08:52:40;;;;;;;4.13;2.40;;;19.50;95.30;;;;;;4228586;28;20509;-57
2023/08/29 08:54:42;;;;;;;5.38;3.10;;;19.60;95.50;;;;;;4246245;28;20411;-56
2023/08/29 08:56:46;;;;;;;8.52;3.67;;;19.60;95.60;;;;;;4247367;28;20050;-56
2023/08/29 08:58:49;;;;;;;8.00;3.17;;;19.60;95.80;;;;;;4247326;28;20043;-56
2023/08/29 09:00:53;;;;;;;5.78;2.92;;;19.80;95.70;;;;;;4247005;28;20051;-57
2023/08/29 09:02:56;;;;;;;6.05;3.00;;;19.80;95.60;;;;;;4247110;28;20049;-56
2023/08/29 09:05:00;;;;;;;5.72;3.28;;;19.90;95.30;;;;;;4246465;28;20050;-57
2023/08/29 09:07:03;;;;;;;4.57;3.30;;;19.90;95.50;;;;;;4246826;28;20035;-56
2023/08/29 09:09:19;;;;;;;5.57;3.38;;;19.70;95.40;;;;;;4247464;27;20049;-59
2023/08/29 09:11:22;;;;;;;6.28;3.15;;;19.80;95.40;;;;;;4250502;27;20430;-59
2023/08/29 09:13:24;;;;;;;6.20;3.05;;;19.70;95.40;;;;;;4231120;28;20082;-58
2023/08/29 09:15:26;;;;;;;5.03;2.97;;;19.90;95.20;;;;;;4231969;28;20496;-58
2023/08/29 09:17:29;;;;;;;6.50;2.95;;;19.90;95.20;;;;;;4250077;27;20100;-58
2023/08/29 09:19:35;;;;;;;5.82;3.28;;;20.00;95.00;;;;;;4250011;27;20050;-59
2023/08/29 09:21:42;;;;;;;9.13;2.88;;;20.10;95.00;;;;;;4249561;27;20146;-59
2023/08/29 09:23:44;;;;;;;5.72;2.22;;;20.20;95.10;;;;;;4248998;27;20051;-59
2023/08/29 09:25:52;;;;;;;5.47;2.17;;;20.20;94.80;;;;;;4249992;27;20103;-58
2023/08/29 09:27:54;;;;;;;8.60;2.85;;;20.30;94.40;;;;;;4250080;27;20078;-59
2023/08/29 09:30:07;;;;;;;5.38;2.75;;;20.40;94.60;;;;;;4249881;27;20066;-59
2023/08/29 09:32:13;;;;;;;4.82;2.55;;;20.50;94.00;;;;;;4231713;28;20121;-58
2023/08/29 09:34:26;;;;;;;8.25;2.80;;;20.50;94.00;;;;;;4248565;27;20047;-59
2023/08/29 09:36:28;;;;;;;9.70;3.00;;;20.50;93.50;;;;;;4249521;27;20404;-59
2023/08/29 09:38:33;;;;;;;9.27;2.92;;;20.40;94.00;;;;;;4249914;27;20047;-59
2023/08/29 09:40:44;;;;;;;4.68;2.28;;;20.50;94.10;;;;;;4249846;27;20047;-59
2023/08/29 09:42:55;;;;;;;3.40;2.20;;;20.60;94.10;;;;;;4249459;27;20047;-59
2023/08/29 09:44:57;;;;;;;5.15;2.38;;;20.60;93.70;;;;;;4248741;27;20134;-56
2023/08/29 09:46:59;;;;;;;4.97;2.10;;;20.60;93.60;;;;;;4249601;27;20047;-57
2023/08/29 09:49:01;;;;;;;11.85;2.40;;;20.70;93.40;;;;;;4231292;28;20082;-57
2023/08/29 09:51:05;;;;;;;3.08;1.80;;;20.60;93.20;;;;;;4249275;27;20046;-57
2023/08/29 09:53:08;;;;;;;8.48;2.45;;;20.70;93.20;;;;;;4249589;27;20067;-61
2023/08/29 09:55:13;;;;;;;3.47;1.60;;;20.80;93.00;;;;;;4248636;27;20104;-57
2023/08/29 09:57:18;;;;;;;4.70;1.95;;;21.00;92.90;;;;;;4249517;27;20081;-57
2023/08/29 09:59:20;;;;;;;;;;;21.10;92.50;;;;;;4249591;27;20458;-59
2023/08/29 10:01:25;;;;;;;7.40;1.88;;;21.20;92.50;;;;;;4249465;27;20392;-58
2023/08/29 10:03:28;;;;;;;4.10;1.90;;;21.40;92.70;;;;;;4248693;27;20501;-59
2023/08/29 10:05:34;;;;;;;3.13;1.63;;;21.60;92.70;;;;;;4248600;27;20039;-58
2023/08/29 10:07:41;;;;;;;5.10;2.08;;;21.70;92.40;;;;;;4249416;27;20047;-59
2023/08/29 10:09:43;;;;;;;3.03;1.70;;;21.70;92.10;;;;;;4249201;27;20047;-58
2023/08/29 10:11:48;;;;;;;6.68;2.00;;;21.60;92.10;;;;;;4249112;27;20044;-57
2023/08/29 10:13:57;;;;;;;3.55;1.60;;;21.50;92.00;;;;;;4248264;27;20416;-57
2023/08/29 10:15:59;;;;;;;3.78;2.10;;;21.40;92.00;;;;;;4256571;27;20135;-56
2023/08/29 10:18:02;;;;;;;5.90;1.90;;;21.30;92.00;;;;;;4266245;27;20042;-58
2023/08/29 10:20:09;;;;;;;7.97;2.08;;;21.30;92.30;;;;;;4263982;27;20051;-59
2023/08/29 10:22:12;;;;;;;5.38;1.80;;;21.40;92.50;;;;;;4255126;27;20045;-59
2023/08/29 10:24:15;;;;;;;3.83;1.75;;;21.60;92.20;;;;;;4255881;27;20104;-57
2023/08/29 10:26:17;;;;;;;4.57;2.03;;;21.60;92.20;;;;;;4266013;27;20047;-56
2023/08/29 10:28:22;;;;;;;4.40;1.65;;;21.70;92.10;;;;;;4263540;27;20469;-56
2023/08/29 10:30:26;;;;;;;3.35;1.75;;;21.70;92.20;;;;;;4231922;27;20075;-57
2023/08/29 10:32:29;;;;;;;6.30;1.77;;;21.60;92.30;;;;;;4248872;27;20056;-56
2023/08/29 10:34:32;;;;;;;3.65;1.63;;;21.60;91.30;;;;;;4257884;27;20076;-58
2023/08/29 10:36:37;;;;;;;6.75;1.85;;;21.50;90.40;;;;;;4246089;27;20512;-56
2023/08/29 10:38:40;;;;;;;5.60;1.60;;;21.50;90.70;;;;;;4258035;27;20057;-56